sensor_id;sensor_type;location;lat;lon;timestamp;temperature;humidity
12557;DHT22;6344;49.932;8.308;2023-09-19T00:01:08;16.00;99.90
12557;DHT22;6344;49.932;8.308;2023-09-19T00:03:38;16.00;99.90
12557;DHT22;6344;49.932;8.308;2023-09-19T00:06:07;16.00;99.90
12557;DHT22;6344;49.932;8.308;2023-09-19T00:08:34;16.00;99.90
12557;DHT22;6344;49.932;8.308;2023-09-19T00:11:01;16.00;99.90
12557;DHT22;6344;49.932;8.308;2023-09-19T00:13:28;16.00;99.90
12557;DHT22;6344;49.932;8.308;2023-09-19T00:15:56;16.00;99.90
12557;DHT22;6344;49.932;8.308;2023-09-19T00:18:24;16.00;99.90
12557;DHT22;6344;49.932;8.308;2023-09-19T00:20:58;15.90;99.90
12557;DHT22;6344;49.932;8.308;2023-09-19T00:23:24;15.90;99.90
12557;DHT22;6344;49.932;8.308;2023-09-19T00:25:51;15.90;99.90
12557;DHT22;6344;49.932;8.308;2023-09-19T00:28:17;15.90;99.90
12557;DHT22;6344;49.932;8.308;2023-09-19T00:30:45;15.90;99.90
12557;DHT22;6344;49.932;8.308;2023-09-19T00:33:15;15.90;99.90
12557;DHT22;6344;49.932;8.308;2023-09-19T00:35:46;15.80;99.90
12557;DHT22;6344;49.932;8.308;2023-09-19T00:38:14;15.80;99.90
12557;DHT22;6344;49.932;8.308;2023-09-19T00:40:43;15.80;99.90
12557;DHT22;6344;49.932;8.308;2023-09-19T00:43:09;15.70;99.90
12557;DHT22;6344;49.932;8.308;2023-09-19T00:45:36;15.60;99.90
12557;DHT22;6344;49.932;8.308;2023-09-19T00:48:04;15.60;99.90
12557;DHT22;6344;49.932;8.308;2023-09-19T00:50:31;15.50;99.90
12557;DHT22;6344;49.932;8.308;2023-09-19T00:52:58;15.60;99.90
12557;DHT22;6344;49.932;8.308;2023-09-19T00:55:26;15.60;99.90
12557;DHT22;6344;49.932;8.308;2023-09-19T00:57:58;15.60;99.90
12557;DHT22;6344;49.932;8.308;2023-09-19T01:00:23;15.60;99.90
12557;DHT22;6344;49.932;8.308;2023-09-19T01:02:50;15.60;99.90
12557;DHT22;6344;49.932;8.308;2023-09-19T01:05:17;15.50;99.90
12557;DHT22;6344;49.932;8.308;2023-09-19T01:07:44;15.50;99.90
12557;DHT22;6344;49.932;8.308;2023-09-19T01:10:14;15.40;99.90
12557;DHT22;6344;49.932;8.308;2023-09-19T01:12:47;15.30;99.90
12557;DHT22;6344;49.932;8.308;2023-09-19T01:15:20;15.30;99.90
12557;DHT22;6344;49.932;8.308;2023-09-19T01:17:48;15.30;99.90
12557;DHT22;6344;49.932;8.308;2023-09-19T01:20:25;15.30;99.90
12557;DHT22;6344;49.932;8.308;2023-09-19T01:22:56;15.20;99.90
12557;DHT22;6344;49.932;8.308;2023-09-19T01:25:33;15.30;99.90
12557;DHT22;6344;49.932;8.308;2023-09-19T01:30:57;15.30;99.90
12557;DHT22;6344;49.932;8.308;2023-09-19T01:33:24;15.30;99.90
12557;DHT22;6344;49.932;8.308;2023-09-19T01:35:51;15.30;99.90
12557;DHT22;6344;49.932;8.308;2023-09-19T01:38:18;15.30;99.90
12557;DHT22;6344;49.932;8.308;2023-09-19T01:40:47;15.50;99.90
12557;DHT22;6344;49.932;8.308;2023-09-19T01:43:16;15.60;99.90
12557;DHT22;6344;49.932;8.308;2023-09-19T01:45:46;15.50;99.90
12557;DHT22;6344;49.932;8.308;2023-09-19T01:48:17;15.60;99.90
12557;DHT22;6344;49.932;8.308;2023-09-19T01:50:47;15.60;99.90
12557;DHT22;6344;49.932;8.308;2023-09-19T01:53:15;15.50;99.90
12557;DHT22;6344;49.932;8.308;2023-09-19T01:55:46;15.50;99.90
12557;DHT22;6344;49.932;8.308;2023-09-19T01:58:16;15.50;99.90
12557;DHT22;6344;49.932;8.308;2023-09-19T02:00:44;15.40;99.90
12557;DHT22;6344;49.932;8.308;2023-09-19T02:03:13;15.30;99.90
12557;DHT22;6344;49.932;8.308;2023-09-19T02:05:41;15.20;99.90
12557;DHT22;6344;49.932;8.308;2023-09-19T02:08:15;15.20;99.90
12557;DHT22;6344;49.932;8.308;2023-09-19T02:10:43;15.10;99.90
12557;DHT22;6344;49.932;8.308;2023-09-19T02:13:14;15.10;99.90
12557;DHT22;6344;49.932;8.308;2023-09-19T02:15:42;15.00;99.90
12557;DHT22;6344;49.932;8.308;2023-09-19T02:18:10;15.00;99.90
12557;DHT22;6344;49.932;8.308;2023-09-19T02:20:37;14.90;99.90
12557;DHT22;6344;49.932;8.308;2023-09-19T02:23:06;15.00;99.90
12557;DHT22;6344;49.932;8.308;2023-09-19T02:25:33;15.10;99.90
12557;DHT22;6344;49.932;8.308;2023-09-19T02:28:00;15.10;99.90
12557;DHT22;6344;49.932;8.308;2023-09-19T02:30:28;15.10;99.90
12557;DHT22;6344;49.932;8.308;2023-09-19T02:32:54;15.10;99.90
12557;DHT22;6344;49.932;8.308;2023-09-19T02:35:21;15.00;99.90
12557;DHT22;6344;49.932;8.308;2023-09-19T02:37:47;15.00;99.90
12557;DHT22;6344;49.932;8.308;2023-09-19T02:40:15;15.00;99.90
12557;DHT22;6344;49.932;8.308;2023-09-19T02:42:45;15.00;99.90
12557;DHT22;6344;49.932;8.308;2023-09-19T02:45:14;14.90;99.90
12557;DHT22;6344;49.932;8.308;2023-09-19T02:47:41;14.90;99.90
12557;DHT22;6344;49.932;8.308;2023-09-19T02:50:07;14.80;99.90
12557;DHT22;6344;49.932;8.308;2023-09-19T02:52:36;14.90;99.90
12557;DHT22;6344;49.932;8.308;2023-09-19T02:55:02;14.80;99.90
12557;DHT22;6344;49.932;8.308;2023-09-19T02:57:32;14.80;99.90
12557;DHT22;6344;49.932;8.308;2023-09-19T02:59:59;14.80;99.90
12557;DHT22;6344;49.932;8.308;2023-09-19T03:02:26;14.70;99.90
12557;DHT22;6344;49.932;8.308;2023-09-19T03:04:54;14.70;99.90
12557;DHT22;6344;49.932;8.308;2023-09-19T03:07:22;14.70;99.90
12557;DHT22;6344;49.932;8.308;2023-09-19T03:09:48;14.60;99.90
12557;DHT22;6344;49.932;8.308;2023-09-19T03:12:15;14.50;99.90
12557;DHT22;6344;49.932;8.308;2023-09-19T03:14:43;14.50;99.90
12557;DHT22;6344;49.932;8.308;2023-09-19T03:17:09;14.50;99.90
12557;DHT22;6344;49.932;8.308;2023-09-19T03:19:36;14.40;99.90
12557;DHT22;6344;49.932;8.308;2023-09-19T03:22:04;14.40;99.90
12557;DHT22;6344;49.932;8.308;2023-09-19T03:24:31;14.30;99.90
12557;DHT22;6344;49.932;8.308;2023-09-19T03:26:58;14.20;99.90
12557;DHT22;6344;49.932;8.308;2023-09-19T03:29:25;14.20;99.90
12557;DHT22;6344;49.932;8.308;2023-09-19T03:31:53;14.10;99.90
12557;DHT22;6344;49.932;8.308;2023-09-19T03:34:20;14.10;99.90
12557;DHT22;6344;49.932;8.308;2023-09-19T03:36:47;14.10;99.90
12557;DHT22;6344;49.932;8.308;2023-09-19T03:39:14;14.00;99.90
12557;DHT22;6344;49.932;8.308;2023-09-19T03:41:41;14.00;99.90
12557;DHT22;6344;49.932;8.308;2023-09-19T03:44:07;14.00;99.90
12557;DHT22;6344;49.932;8.308;2023-09-19T03:46:34;14.00;99.90
12557;DHT22;6344;49.932;8.308;2023-09-19T03:49:02;14.00;99.90
12557;DHT22;6344;49.932;8.308;2023-09-19T03:51:29;14.10;99.90
12557;DHT22;6344;49.932;8.308;2023-09-19T03:53:56;14.10;99.90
12557;DHT22;6344;49.932;8.308;2023-09-19T03:56:23;14.10;99.90
12557;DHT22;6344;49.932;8.308;2023-09-19T03:58:49;14.10;99.90
12557;DHT22;6344;49.932;8.308;2023-09-19T04:01:16;14.00;99.90
12557;DHT22;6344;49.932;8.308;2023-09-19T04:03:43;14.10;99.90
12557;DHT22;6344;49.932;8.308;2023-09-19T04:06:14;14.10;99.90
12557;DHT22;6344;49.932;8.308;2023-09-19T04:08:41;14.10;99.90
12557;DHT22;6344;49.932;8.308;2023-09-19T04:11:08;14.10;99.90
12557;DHT22;6344;49.932;8.308;2023-09-19T04:13:34;14.10;99.90
12557;DHT22;6344;49.932;8.308;2023-09-19T04:16:01;14.10;99.90
12557;DHT22;6344;49.932;8.308;2023-09-19T04:18:28;14.10;99.90
12557;DHT22;6344;49.932;8.308;2023-09-19T04:20:56;14.10;99.90
12557;DHT22;6344;49.932;8.308;2023-09-19T04:23:24;14.10;99.90
12557;DHT22;6344;49.932;8.308;2023-09-19T04:25:50;14.10;99.90
12557;DHT22;6344;49.932;8.308;2023-09-19T04:28:17;14.10;99.90
12557;DHT22;6344;49.932;8.308;2023-09-19T04:30:44;14.20;99.90
12557;DHT22;6344;49.932;8.308;2023-09-19T04:33:10;14.20;99.90
12557;DHT22;6344;49.932;8.308;2023-09-19T04:35:39;14.30;99.90
12557;DHT22;6344;49.932;8.308;2023-09-19T04:38:07;14.10;99.90
12557;DHT22;6344;49.932;8.308;2023-09-19T04:40:35;14.10;99.90
12557;DHT22;6344;49.932;8.308;2023-09-19T04:43:05;14.00;99.90
12557;DHT22;6344;49.932;8.308;2023-09-19T04:45:32;14.10;99.90
12557;DHT22;6344;49.932;8.308;2023-09-19T04:47:59;14.00;99.90
12557;DHT22;6344;49.932;8.308;2023-09-19T04:50:26;13.90;99.90
12557;DHT22;6344;49.932;8.308;2023-09-19T04:52:53;14.00;99.90
12557;DHT22;6344;49.932;8.308;2023-09-19T04:55:19;13.90;99.90
12557;DHT22;6344;49.932;8.308;2023-09-19T04:57:48;13.90;99.90
12557;DHT22;6344;49.932;8.308;2023-09-19T05:00:13;14.20;99.90
12557;DHT22;6344;49.932;8.308;2023-09-19T05:05:09;13.70;99.90
12557;DHT22;6344;49.932;8.308;2023-09-19T05:07:36;13.60;99.90
12557;DHT22;6344;49.932;8.308;2023-09-19T05:10:03;13.60;99.90
12557;DHT22;6344;49.932;8.308;2023-09-19T05:12:32;13.60;99.90
12557;DHT22;6344;49.932;8.308;2023-09-19T05:15:00;13.60;99.90
12557;DHT22;6344;49.932;8.308;2023-09-19T05:17:28;13.60;99.90
12557;DHT22;6344;49.932;8.308;2023-09-19T05:19:54;13.60;99.90
12557;DHT22;6344;49.932;8.308;2023-09-19T05:22:21;13.60;99.90
12557;DHT22;6344;49.932;8.308;2023-09-19T05:24:49;13.70;99.90
12557;DHT22;6344;49.932;8.308;2023-09-19T05:27:16;13.60;99.90
12557;DHT22;6344;49.932;8.308;2023-09-19T05:29:43;13.70;99.90
12557;DHT22;6344;49.932;8.308;2023-09-19T05:32:11;13.70;99.90
12557;DHT22;6344;49.932;8.308;2023-09-19T05:34:38;13.70;99.90
12557;DHT22;6344;49.932;8.308;2023-09-19T05:37:04;13.70;99.90
12557;DHT22;6344;49.932;8.308;2023-09-19T05:39:32;13.60;99.90
12557;DHT22;6344;49.932;8.308;2023-09-19T05:41:58;13.80;99.90
12557;DHT22;6344;49.932;8.308;2023-09-19T05:44:25;13.80;99.90
12557;DHT22;6344;49.932;8.308;2023-09-19T05:46:53;13.90;99.90
12557;DHT22;6344;49.932;8.308;2023-09-19T05:49:23;13.90;99.90
12557;DHT22;6344;49.932;8.308;2023-09-19T05:51:50;13.90;99.90
12557;DHT22;6344;49.932;8.308;2023-09-19T05:54:19;13.90;99.90
12557;DHT22;6344;49.932;8.308;2023-09-19T05:56:46;14.00;99.90
12557;DHT22;6344;49.932;8.308;2023-09-19T05:59:13;14.00;99.90
12557;DHT22;6344;49.932;8.308;2023-09-19T06:01:40;14.10;99.90
12557;DHT22;6344;49.932;8.308;2023-09-19T06:04:07;14.10;99.90
12557;DHT22;6344;49.932;8.308;2023-09-19T06:06:35;14.10;99.90
12557;DHT22;6344;49.932;8.308;2023-09-19T06:09:04;14.20;99.90
12557;DHT22;6344;49.932;8.308;2023-09-19T06:11:31;14.30;99.90
12557;DHT22;6344;49.932;8.308;2023-09-19T06:13:59;14.40;99.90
12557;DHT22;6344;49.932;8.308;2023-09-19T06:16:27;14.50;99.90
12557;DHT22;6344;49.932;8.308;2023-09-19T06:18:54;14.50;99.90
12557;DHT22;6344;49.932;8.308;2023-09-19T06:21:21;14.60;99.90
12557;DHT22;6344;49.932;8.308;2023-09-19T06:23:49;14.60;99.90
12557;DHT22;6344;49.932;8.308;2023-09-19T06:26:15;14.60;99.90
12557;DHT22;6344;49.932;8.308;2023-09-19T06:28:42;14.70;99.90
12557;DHT22;6344;49.932;8.308;2023-09-19T06:31:09;14.80;99.90
12557;DHT22;6344;49.932;8.308;2023-09-19T06:33:35;14.90;99.90
12557;DHT22;6344;49.932;8.308;2023-09-19T06:36:03;14.90;99.90
12557;DHT22;6344;49.932;8.308;2023-09-19T06:38:30;15.00;99.90
12557;DHT22;6344;49.932;8.308;2023-09-19T06:40:59;15.10;99.90
12557;DHT22;6344;49.932;8.308;2023-09-19T06:43:26;15.20;99.90
12557;DHT22;6344;49.932;8.308;2023-09-19T06:45:53;15.30;99.90
12557;DHT22;6344;49.932;8.308;2023-09-19T06:48:21;15.40;99.90
12557;DHT22;6344;49.932;8.308;2023-09-19T06:50:50;15.50;99.90
12557;DHT22;6344;49.932;8.308;2023-09-19T06:53:16;15.70;99.90
12557;DHT22;6344;49.932;8.308;2023-09-19T06:55:43;15.70;99.90
12557;DHT22;6344;49.932;8.308;2023-09-19T06:58:11;15.80;99.90
12557;DHT22;6344;49.932;8.308;2023-09-19T07:00:38;15.90;99.90
12557;DHT22;6344;49.932;8.308;2023-09-19T07:03:05;16.10;99.90
12557;DHT22;6344;49.932;8.308;2023-09-19T07:05:34;16.10;99.90
12557;DHT22;6344;49.932;8.308;2023-09-19T07:08:03;16.20;99.90
12557;DHT22;6344;49.932;8.308;2023-09-19T07:10:29;16.30;99.90
12557;DHT22;6344;49.932;8.308;2023-09-19T07:12:56;16.50;99.90
12557;DHT22;6344;49.932;8.308;2023-09-19T07:15:24;16.50;99.90
12557;DHT22;6344;49.932;8.308;2023-09-19T07:17:51;16.70;99.90
12557;DHT22;6344;49.932;8.308;2023-09-19T07:20:19;16.60;99.90
12557;DHT22;6344;49.932;8.308;2023-09-19T07:22:45;16.50;99.90
12557;DHT22;6344;49.932;8.308;2023-09-19T07:25:13;16.60;99.90
12557;DHT22;6344;49.932;8.308;2023-09-19T07:27:40;16.70;99.90
12557;DHT22;6344;49.932;8.308;2023-09-19T07:30:07;16.70;99.90
12557;DHT22;6344;49.932;8.308;2023-09-19T07:32:35;16.70;99.90
12557;DHT22;6344;49.932;8.308;2023-09-19T07:35:02;16.80;99.90
12557;DHT22;6344;49.932;8.308;2023-09-19T07:37:29;16.90;99.90
12557;DHT22;6344;49.932;8.308;2023-09-19T07:39:56;16.90;99.90
12557;DHT22;6344;49.932;8.308;2023-09-19T07:42:23;17.00;99.90
12557;DHT22;6344;49.932;8.308;2023-09-19T07:44:49;17.00;99.90
12557;DHT22;6344;49.932;8.308;2023-09-19T07:47:16;17.10;99.90
12557;DHT22;6344;49.932;8.308;2023-09-19T07:49:45;17.20;99.90
12557;DHT22;6344;49.932;8.308;2023-09-19T07:52:13;17.40;99.90
12557;DHT22;6344;49.932;8.308;2023-09-19T07:54:40;17.10;99.90
12557;DHT22;6344;49.932;8.308;2023-09-19T07:57:09;17.30;99.90
12557;DHT22;6344;49.932;8.308;2023-09-19T07:59:36;17.10;99.90
12557;DHT22;6344;49.932;8.308;2023-09-19T08:02:03;16.80;99.90
12557;DHT22;6344;49.932;8.308;2023-09-19T08:04:30;17.00;99.90
12557;DHT22;6344;49.932;8.308;2023-09-19T08:07:00;17.20;99.90
12557;DHT22;6344;49.932;8.308;2023-09-19T08:09:29;17.20;99.90
12557;DHT22;6344;49.932;8.308;2023-09-19T08:11:58;17.10;99.90
12557;DHT22;6344;49.932;8.308;2023-09-19T08:14:27;17.30;99.90
12557;DHT22;6344;49.932;8.308;2023-09-19T08:16:56;17.20;99.90
12557;DHT22;6344;49.932;8.308;2023-09-19T08:19:22;17.50;99.90
12557;DHT22;6344;49.932;8.308;2023-09-19T08:21:54;17.20;99.90
12557;DHT22;6344;49.932;8.308;2023-09-19T08:24:22;17.30;99.90
12557;DHT22;6344;49.932;8.308;2023-09-19T08:26:50;17.30;99.90
12557;DHT22;6344;49.932;8.308;2023-09-19T08:29:17;17.40;99.90
12557;DHT22;6344;49.932;8.308;2023-09-19T08:31:43;17.50;99.90
12557;DHT22;6344;49.932;8.308;2023-09-19T08:34:10;17.70;99.90
12557;DHT22;6344;49.932;8.308;2023-09-19T08:36:36;17.70;99.90
12557;DHT22;6344;49.932;8.308;2023-09-19T08:39:04;17.80;99.90
12557;DHT22;6344;49.932;8.308;2023-09-19T08:41:32;17.90;99.90
12557;DHT22;6344;49.932;8.308;2023-09-19T08:43:58;17.40;99.90
12557;DHT22;6344;49.932;8.308;2023-09-19T08:46:27;17.50;99.90
12557;DHT22;6344;49.932;8.308;2023-09-19T08:48:57;17.60;99.90
12557;DHT22;6344;49.932;8.308;2023-09-19T08:51:30;17.80;99.90
12557;DHT22;6344;49.932;8.308;2023-09-19T08:54:02;18.00;99.90
12557;DHT22;6344;49.932;8.308;2023-09-19T08:56:30;18.30;99.90
12557;DHT22;6344;49.932;8.308;2023-09-19T08:59:02;17.90;99.90
12557;DHT22;6344;49.932;8.308;2023-09-19T09:01:29;17.80;99.90
12557;DHT22;6344;49.932;8.308;2023-09-19T09:03:57;17.80;99.90
12557;DHT22;6344;49.932;8.308;2023-09-19T09:06:25;18.00;99.90
12557;DHT22;6344;49.932;8.308;2023-09-19T09:08:53;18.00;99.90
12557;DHT22;6344;49.932;8.308;2023-09-19T09:11:20;18.00;99.90
12557;DHT22;6344;49.932;8.308;2023-09-19T09:13:47;18.40;99.90
12557;DHT22;6344;49.932;8.308;2023-09-19T09:16:15;18.60;99.90
12557;DHT22;6344;49.932;8.308;2023-09-19T09:18:44;18.70;99.90
12557;DHT22;6344;49.932;8.308;2023-09-19T09:21:10;18.40;99.90
12557;DHT22;6344;49.932;8.308;2023-09-19T09:23:38;18.00;99.90
12557;DHT22;6344;49.932;8.308;2023-09-19T09:26:05;18.00;99.90
12557;DHT22;6344;49.932;8.308;2023-09-19T09:28:33;18.50;99.90
12557;DHT22;6344;49.932;8.308;2023-09-19T09:31:00;18.70;99.90
12557;DHT22;6344;49.932;8.308;2023-09-19T09:33:29;18.60;99.90
12557;DHT22;6344;49.932;8.308;2023-09-19T09:35:56;18.80;99.90
12557;DHT22;6344;49.932;8.308;2023-09-19T09:38:25;19.20;99.90
12557;DHT22;6344;49.932;8.308;2023-09-19T09:40:53;19.00;99.90
12557;DHT22;6344;49.932;8.308;2023-09-19T09:43:28;19.30;99.90
12557;DHT22;6344;49.932;8.308;2023-09-19T09:46:09;19.00;99.90
12557;DHT22;6344;49.932;8.308;2023-09-19T09:48:59;19.20;99.90
12557;DHT22;6344;49.932;8.308;2023-09-19T09:51:41;19.30;99.90
12557;DHT22;6344;49.932;8.308;2023-09-19T09:54:11;19.80;99.90
12557;DHT22;6344;49.932;8.308;2023-09-19T09:56:52;19.40;99.90
12557;DHT22;6344;49.932;8.308;2023-09-19T09:59:19;19.60;99.90
12557;DHT22;6344;49.932;8.308;2023-09-19T10:01:49;19.40;99.90
12557;DHT22;6344;49.932;8.308;2023-09-19T10:04:28;19.80;99.90
12557;DHT22;6344;49.932;8.308;2023-09-19T10:06:57;19.90;99.90
12557;DHT22;6344;49.932;8.308;2023-09-19T10:09:23;19.80;99.90
12557;DHT22;6344;49.932;8.308;2023-09-19T10:12:03;19.90;99.90
12557;DHT22;6344;49.932;8.308;2023-09-19T10:14:30;20.50;99.90
12557;DHT22;6344;49.932;8.308;2023-09-19T10:16:58;20.80;99.90
12557;DHT22;6344;49.932;8.308;2023-09-19T10:19:30;20.40;99.90
12557;DHT22;6344;49.932;8.308;2023-09-19T10:22:02;20.50;99.90
12557;DHT22;6344;49.932;8.308;2023-09-19T10:24:30;20.40;99.90
12557;DHT22;6344;49.932;8.308;2023-09-19T10:26:59;20.20;99.90
12557;DHT22;6344;49.932;8.308;2023-09-19T10:29:27;19.60;99.90
12557;DHT22;6344;49.932;8.308;2023-09-19T10:31:56;19.90;99.90
12557;DHT22;6344;49.932;8.308;2023-09-19T10:34:24;20.20;99.90
12557;DHT22;6344;49.932;8.308;2023-09-19T10:36:53;19.80;99.90
12557;DHT22;6344;49.932;8.308;2023-09-19T10:39:20;19.80;99.90
12557;DHT22;6344;49.932;8.308;2023-09-19T10:41:49;19.90;99.90
12557;DHT22;6344;49.932;8.308;2023-09-19T10:44:22;21.10;99.90
12557;DHT22;6344;49.932;8.308;2023-09-19T10:46:50;21.50;99.90
12557;DHT22;6344;49.932;8.308;2023-09-19T10:49:18;21.40;99.90
12557;DHT22;6344;49.932;8.308;2023-09-19T10:51:44;21.90;99.90
12557;DHT22;6344;49.932;8.308;2023-09-19T10:54:16;22.10;99.90
12557;DHT22;6344;49.932;8.308;2023-09-19T10:56:46;22.40;99.90
12557;DHT22;6344;49.932;8.308;2023-09-19T10:59:14;22.80;99.90
12557;DHT22;6344;49.932;8.308;2023-09-19T11:01:43;22.10;99.90
12557;DHT22;6344;49.932;8.308;2023-09-19T11:04:22;22.70;99.90
12557;DHT22;6344;49.932;8.308;2023-09-19T11:06:58;22.60;99.90
12557;DHT22;6344;49.932;8.308;2023-09-19T11:09:26;21.40;99.90
12557;DHT22;6344;49.932;8.308;2023-09-19T11:12:08;21.20;99.90
12557;DHT22;6344;49.932;8.308;2023-09-19T11:14:37;21.50;99.90
12557;DHT22;6344;49.932;8.308;2023-09-19T11:25:44;23.10;99.90
12557;DHT22;6344;49.932;8.308;2023-09-19T11:28:32;23.10;92.40
12557;DHT22;6344;49.932;8.308;2023-09-19T11:30:58;22.90;88.40
12557;DHT22;6344;49.932;8.308;2023-09-19T11:33:25;22.60;70.70
12557;DHT22;6344;49.932;8.308;2023-09-19T11:36:00;23.00;80.30
12557;DHT22;6344;49.932;8.308;2023-09-19T11:44:31;22.90;58.10
12557;DHT22;6344;49.932;8.308;2023-09-19T11:46:51;22.80;54.30
12557;DHT22;6344;49.932;8.308;2023-09-19T11:49:18;22.40;51.90
12557;DHT22;6344;49.932;8.308;2023-09-19T11:51:50;22.50;49.00
12557;DHT22;6344;49.932;8.308;2023-09-19T11:54:17;22.60;48.50
12557;DHT22;6344;49.932;8.308;2023-09-19T11:56:48;22.50;47.00
12557;DHT22;6344;49.932;8.308;2023-09-19T11:59:20;22.10;40.80
12557;DHT22;6344;49.932;8.308;2023-09-19T12:01:50;22.70;44.60
12557;DHT22;6344;49.932;8.308;2023-09-19T12:04:33;22.90;42.80
12557;DHT22;6344;49.932;8.308;2023-09-19T12:07:00;22.70;37.60
12557;DHT22;6344;49.932;8.308;2023-09-19T12:09:26;23.80;43.70
12557;DHT22;6344;49.932;8.308;2023-09-19T12:11:53;23.80;40.20
12557;DHT22;6344;49.932;8.308;2023-09-19T12:14:24;23.20;35.00
12557;DHT22;6344;49.932;8.308;2023-09-19T12:16:51;22.80;31.80
12557;DHT22;6344;49.932;8.308;2023-09-19T12:19:21;23.10;32.70
12557;DHT22;6344;49.932;8.308;2023-09-19T12:21:53;22.80;30.60
12557;DHT22;6344;49.932;8.308;2023-09-19T12:24:20;23.00;28.40
12557;DHT22;6344;49.932;8.308;2023-09-19T12:26:47;22.80;27.20
12557;DHT22;6344;49.932;8.308;2023-09-19T12:29:18;22.70;24.80
12557;DHT22;6344;49.932;8.308;2023-09-19T12:31:49;23.10;25.80
12557;DHT22;6344;49.932;8.308;2023-09-19T12:34:18;22.70;22.60
12557;DHT22;6344;49.932;8.308;2023-09-19T12:36:46;22.70;21.00
12557;DHT22;6344;49.932;8.308;2023-09-19T12:39:22;22.80;21.80
12557;DHT22;6344;49.932;8.308;2023-09-19T12:41:48;23.20;21.10
12557;DHT22;6344;49.932;8.308;2023-09-19T12:44:16;23.40;20.50
12557;DHT22;6344;49.932;8.308;2023-09-19T12:46:43;22.70;16.80
12557;DHT22;6344;49.932;8.308;2023-09-19T12:49:17;23.10;17.90
12557;DHT22;6344;49.932;8.308;2023-09-19T12:51:45;22.50;13.50
12557;DHT22;6344;49.932;8.308;2023-09-19T12:54:11;23.10;16.00
12557;DHT22;6344;49.932;8.308;2023-09-19T12:56:40;23.30;17.50
12557;DHT22;6344;49.932;8.308;2023-09-19T12:59:09;23.30;16.50
12557;DHT22;6344;49.932;8.308;2023-09-19T13:01:38;23.10;13.50
12557;DHT22;6344;49.932;8.308;2023-09-19T13:04:10;23.10;15.10
12557;DHT22;6344;49.932;8.308;2023-09-19T13:06:39;23.10;13.20
12557;DHT22;6344;49.932;8.308;2023-09-19T13:09:08;22.50;9.80
12557;DHT22;6344;49.932;8.308;2023-09-19T13:11:35;22.70;10.40
12557;DHT22;6344;49.932;8.308;2023-09-19T13:14:14;23.20;12.70
12557;DHT22;6344;49.932;8.308;2023-09-19T13:16:52;22.90;9.50
12557;DHT22;6344;49.932;8.308;2023-09-19T13:19:34;23.30;9.30
12557;DHT22;6344;49.932;8.308;2023-09-19T13:22:02;22.90;5.90
12557;DHT22;6344;49.932;8.308;2023-09-19T13:24:28;22.90;5.80
12557;DHT22;6344;49.932;8.308;2023-09-19T13:26:56;22.60;3.20
12557;DHT22;6344;49.932;8.308;2023-09-19T13:29:22;22.50;2.50
12557;DHT22;6344;49.932;8.308;2023-09-19T13:31:49;23.10;5.30
12557;DHT22;6344;49.932;8.308;2023-09-19T13:34:18;23.10;4.80
12557;DHT22;6344;49.932;8.308;2023-09-19T13:36:45;23.30;4.80
12557;DHT22;6344;49.932;8.308;2023-09-19T13:39:14;23.20;14.40
12557;DHT22;6344;49.932;8.308;2023-09-19T13:41:41;23.70;5.50
12557;DHT22;6344;49.932;8.308;2023-09-19T13:44:08;23.60;3.20
12557;DHT22;6344;49.932;8.308;2023-09-19T13:46:35;23.10;2.00
12557;DHT22;6344;49.932;8.308;2023-09-19T13:49:02;22.90;1.00
12557;DHT22;6344;49.932;8.308;2023-09-19T13:51:30;22.10;1.00
12557;DHT22;6344;49.932;8.308;2023-09-19T13:53:57;22.10;1.00
12557;DHT22;6344;49.932;8.308;2023-09-19T13:56:26;22.40;1.00
12557;DHT22;6344;49.932;8.308;2023-09-19T13:58:53;22.10;1.00
12557;DHT22;6344;49.932;8.308;2023-09-19T14:01:19;22.10;1.00
12557;DHT22;6344;49.932;8.308;2023-09-19T14:03:46;22.10;1.00
12557;DHT22;6344;49.932;8.308;2023-09-19T14:06:15;22.50;1.00
12557;DHT22;6344;49.932;8.308;2023-09-19T14:08:41;22.80;1.00
12557;DHT22;6344;49.932;8.308;2023-09-19T14:11:08;23.00;1.00
12557;DHT22;6344;49.932;8.308;2023-09-19T14:13:36;22.90;1.00
12557;DHT22;6344;49.932;8.308;2023-09-19T14:16:03;22.30;1.00
12557;DHT22;6344;49.932;8.308;2023-09-19T14:18:31;22.00;1.00
12557;DHT22;6344;49.932;8.308;2023-09-19T14:20:58;21.50;1.00
12557;DHT22;6344;49.932;8.308;2023-09-19T14:23:24;21.60;1.00
12557;DHT22;6344;49.932;8.308;2023-09-19T14:25:51;22.30;1.00
12557;DHT22;6344;49.932;8.308;2023-09-19T14:28:19;22.70;1.00
12557;DHT22;6344;49.932;8.308;2023-09-19T14:30:46;23.30;1.00
12557;DHT22;6344;49.932;8.308;2023-09-19T14:33:14;22.90;1.00
12557;DHT22;6344;49.932;8.308;2023-09-19T14:35:41;23.40;1.00
12557;DHT22;6344;49.932;8.308;2023-09-19T14:38:07;23.40;1.00
12557;DHT22;6344;49.932;8.308;2023-09-19T14:40:34;22.30;1.00
12557;DHT22;6344;49.932;8.308;2023-09-19T14:43:01;22.90;1.00
12557;DHT22;6344;49.932;8.308;2023-09-19T14:45:28;22.90;1.00
12557;DHT22;6344;49.932;8.308;2023-09-19T14:47:58;22.80;1.00
12557;DHT22;6344;49.932;8.308;2023-09-19T14:50:24;22.90;1.00
12557;DHT22;6344;49.932;8.308;2023-09-19T14:52:51;23.40;1.00
12557;DHT22;6344;49.932;8.308;2023-09-19T14:55:19;23.70;1.00
12557;DHT22;6344;49.932;8.308;2023-09-19T14:57:48;23.50;1.00
12557;DHT22;6344;49.932;8.308;2023-09-19T15:00:16;23.30;1.00
12557;DHT22;6344;49.932;8.308;2023-09-19T15:02:45;23.40;1.00
12557;DHT22;6344;49.932;8.308;2023-09-19T15:05:15;23.50;1.00
12557;DHT22;6344;49.932;8.308;2023-09-19T15:07:41;23.00;1.00
12557;DHT22;6344;49.932;8.308;2023-09-19T15:10:08;23.20;1.00
12557;DHT22;6344;49.932;8.308;2023-09-19T15:12:35;23.30;1.00
12557;DHT22;6344;49.932;8.308;2023-09-19T15:15:03;23.70;1.00
12557;DHT22;6344;49.932;8.308;2023-09-19T15:17:30;23.50;1.00
12557;DHT22;6344;49.932;8.308;2023-09-19T15:19:57;23.10;1.00
12557;DHT22;6344;49.932;8.308;2023-09-19T15:22:25;23.60;1.00
12557;DHT22;6344;49.932;8.308;2023-09-19T15:24:52;23.20;1.00
12557;DHT22;6344;49.932;8.308;2023-09-19T15:27:18;22.80;1.00
12557;DHT22;6344;49.932;8.308;2023-09-19T15:29:45;22.50;1.00
12557;DHT22;6344;49.932;8.308;2023-09-19T15:32:11;22.50;1.00
12557;DHT22;6344;49.932;8.308;2023-09-19T15:34:38;23.20;1.00
12557;DHT22;6344;49.932;8.308;2023-09-19T15:37:05;23.30;1.00
12557;DHT22;6344;49.932;8.308;2023-09-19T15:39:32;23.00;1.00
12557;DHT22;6344;49.932;8.308;2023-09-19T15:41:59;22.90;1.00
12557;DHT22;6344;49.932;8.308;2023-09-19T15:44:26;22.50;1.00
12557;DHT22;6344;49.932;8.308;2023-09-19T15:46:52;22.20;99.90
12557;DHT22;6344;49.932;8.308;2023-09-19T15:49:19;22.60;99.90
12557;DHT22;6344;49.932;8.308;2023-09-19T15:51:46;22.50;99.90
12557;DHT22;6344;49.932;8.308;2023-09-19T15:54:13;22.20;99.90
12557;DHT22;6344;49.932;8.308;2023-09-19T15:56:41;21.90;99.90
12557;DHT22;6344;49.932;8.308;2023-09-19T15:59:08;21.90;99.90
12557;DHT22;6344;49.932;8.308;2023-09-19T16:01:34;21.80;99.90
12557;DHT22;6344;49.932;8.308;2023-09-19T16:04:01;21.80;99.90
12557;DHT22;6344;49.932;8.308;2023-09-19T16:06:29;21.80;99.90
12557;DHT22;6344;49.932;8.308;2023-09-19T16:08:56;21.50;99.90
12557;DHT22;6344;49.932;8.308;2023-09-19T16:11:23;21.40;99.90
12557;DHT22;6344;49.932;8.308;2023-09-19T16:13:51;21.30;99.90